createdAt,value
2018-09-06T00:00:50.664Z,0
2018-09-06T00:01:59.709Z,0
2018-09-06T00:03:08.742Z,0
2018-09-06T00:04:18.325Z,0
2018-09-06T00:05:27.908Z,0
2018-09-06T00:06:38.025Z,0
2018-09-06T00:07:47.593Z,0
2018-09-06T00:08:57.437Z,0
2018-09-06T00:10:07.011Z,0
2018-09-06T00:11:16.317Z,0
2018-09-06T00:12:25.901Z,0
2018-09-06T00:13:35.743Z,0
2018-09-06T00:14:45.319Z,0
2018-09-06T00:15:54.091Z,0
2018-09-06T00:17:04.209Z,0
2018-09-06T00:18:13.790Z,0
2018-09-06T00:19:23.373Z,0
2018-09-06T00:20:32.952Z,0
2018-09-06T00:21:42.536Z,0
2018-09-06T00:22:52.714Z,0
2018-09-06T00:24:02.558Z,0
2018-09-06T00:25:12.676Z,0
2018-09-06T00:26:22.796Z,0
2018-09-06T00:27:32.373Z,0
2018-09-06T00:28:42.543Z,0
2018-09-06T00:29:52.389Z,0
2018-09-06T00:31:01.981Z,0
2018-09-06T00:32:12.099Z,0
2018-09-06T00:33:21.942Z,0
2018-09-06T00:34:31.256Z,0
2018-09-06T00:35:41.103Z,0
2018-09-06T00:36:50.677Z,0
2018-09-06T00:38:00.260Z,0
2018-09-06T00:39:10.086Z,0
2018-09-06T00:40:19.934Z,0
2018-09-06T00:41:29.780Z,0
2018-09-06T00:42:39.625Z,0
2018-09-06T00:43:48.935Z,0
2018-09-06T00:44:58.516Z,0
2018-09-06T00:46:08.095Z,0
2018-09-06T00:47:17.670Z,0
2018-09-06T00:48:27.519Z,0
2018-09-06T00:49:37.373Z,0
2018-09-06T00:50:47.214Z,0
2018-09-06T00:51:56.518Z,0
2018-09-06T00:53:05.826Z,0
2018-09-06T00:54:15.405Z,0
2018-09-06T00:55:24.992Z,0
2018-09-06T00:56:34.569Z,0
2018-09-06T00:57:44.412Z,0
2018-09-06T00:58:54.256Z,0
2018-09-06T01:00:04.105Z,0
2018-09-06T01:01:13.683Z,0
2018-09-06T01:02:23.522Z,0
2018-09-06T01:03:33.628Z,0
2018-09-06T01:04:43.473Z,0
2018-09-06T01:05:53.642Z,0
2018-09-06T01:07:03.222Z,0
2018-09-06T01:08:13.339Z,0
2018-09-06T01:09:22.910Z,0
2018-09-06T01:10:32.763Z,0
2018-09-06T01:11:42.334Z,0
2018-09-06T01:12:52.173Z,0
2018-09-06T01:14:02.013Z,0
2018-09-06T01:15:11.908Z,0
2018-09-06T01:16:21.212Z,0
2018-09-06T01:17:30.787Z,0
2018-09-06T01:18:40.896Z,0
2018-09-06T01:19:50.476Z,0
2018-09-06T01:21:00.319Z,0
2018-09-06T01:22:09.889Z,0
2018-09-06T01:23:19.463Z,0
2018-09-06T01:24:29.309Z,0
2018-09-06T01:25:39.423Z,0
2018-09-06T01:26:49.264Z,0
2018-09-06T01:27:59.374Z,0
2018-09-06T01:29:09.493Z,0
2018-09-06T01:30:19.339Z,0
2018-09-06T01:31:29.453Z,0
2018-09-06T01:32:39.572Z,0
2018-09-06T01:33:49.681Z,0
2018-09-06T01:34:59.801Z,0
2018-09-06T01:36:09.650Z,0
2018-09-06T01:37:19.493Z,0
2018-09-06T01:38:29.250Z,0
2018-09-06T01:39:39.493Z,0
2018-09-06T01:40:49.071Z,0
2018-09-06T01:41:58.912Z,0
2018-09-06T01:43:08.485Z,0
2018-09-06T01:44:18.133Z,0
2018-09-06T01:45:27.992Z,0
2018-09-06T01:46:37.834Z,0
2018-09-06T01:47:47.144Z,0
2018-09-06T01:48:56.991Z,0
2018-09-06T01:50:06.568Z,0
2018-09-06T01:51:16.143Z,0
2018-09-06T01:52:25.983Z,0
2018-09-06T01:53:35.281Z,0
2018-09-06T01:54:44.590Z,0
2018-09-06T01:55:54.762Z,0
2018-09-06T01:57:04.606Z,0
2018-09-06T01:58:14.455Z,0
2018-09-06T01:59:24.306Z,0
2018-09-06T02:00:34.164Z,0
2018-09-06T02:01:44.014Z,0
2018-09-06T02:02:54.127Z,0
2018-09-06T02:04:03.707Z,0
2018-09-06T02:05:13.833Z,0
2018-09-06T02:06:23.143Z,0
2018-09-06T02:07:33.268Z,0
2018-09-06T02:08:42.838Z,0
2018-09-06T02:09:52.134Z,0
2018-09-06T02:11:02.249Z,0
2018-09-06T02:12:11.559Z,0
2018-09-06T02:13:21.672Z,0
2018-09-06T02:14:30.979Z,0
2018-09-06T02:15:40.833Z,0
2018-09-06T02:16:50.404Z,0
2018-09-06T02:17:59.712Z,0
2018-09-06T02:19:09.636Z,0
2018-09-06T02:20:19.205Z,0
2018-09-06T02:21:28.778Z,0
2018-09-06T02:22:38.619Z,0
2018-09-06T02:23:48.186Z,0
2018-09-06T02:24:58.021Z,0
2018-09-06T02:26:08.141Z,0
2018-09-06T02:27:18.249Z,0
2018-09-06T02:28:27.823Z,0
2018-09-06T02:29:37.392Z,0
2018-09-06T02:30:47.502Z,0
2018-09-06T02:31:57.370Z,0
2018-09-06T02:33:06.944Z,0
2018-09-06T02:34:16.789Z,0
2018-09-06T02:35:26.627Z,0
2018-09-06T02:36:36.203Z,0
2018-09-06T02:37:45.778Z,0
2018-09-06T02:38:55.890Z,0
2018-09-06T02:40:05.471Z,0
2018-09-06T02:41:15.373Z,0
2018-09-06T02:42:25.224Z,0
2018-09-06T02:43:35.067Z,0
2018-09-06T02:44:44.927Z,0
2018-09-06T02:45:54.774Z,0
2018-09-06T02:47:04.343Z,0
2018-09-06T02:48:13.969Z,0
2018-09-06T02:49:23.548Z,0
2018-09-06T02:50:32.848Z,0
2018-09-06T02:51:42.696Z,0
2018-09-06T02:52:52.816Z,0
2018-09-06T02:54:03.463Z,0
2018-09-06T02:55:13.221Z,0
2018-09-06T02:56:23.344Z,0
2018-09-06T02:57:32.919Z,0
2018-09-06T02:58:42.759Z,0
2018-09-06T02:59:52.603Z,0
2018-09-06T03:01:02.184Z,0
2018-09-06T03:02:11.760Z,0
2018-09-06T03:03:20.795Z,0
2018-09-06T03:04:30.372Z,0
2018-09-06T03:05:40.537Z,0
2018-09-06T03:06:50.400Z,0
2018-09-06T03:08:00.257Z,0
2018-09-06T03:09:10.376Z,0
2018-09-06T03:10:19.958Z,0
2018-09-06T03:11:30.081Z,0
2018-09-06T03:12:39.391Z,0
2018-09-06T03:13:49.235Z,0
2018-09-06T03:14:59.072Z,0
2018-09-06T03:16:09.194Z,0
2018-09-06T03:17:19.042Z,0
2018-09-06T03:18:28.612Z,0
2018-09-06T03:19:38.464Z,0
2018-09-06T03:20:47.768Z,0
2018-09-06T03:21:57.066Z,0
2018-09-06T03:23:06.911Z,0
2018-09-06T03:24:16.489Z,0
2018-09-06T03:25:26.339Z,0
2018-09-06T03:26:35.927Z,0
2018-09-06T03:27:45.773Z,0
2018-09-06T03:28:55.349Z,0
2018-09-06T03:30:05.198Z,0
2018-09-06T03:31:14.787Z,0
2018-09-06T03:32:24.922Z,0
2018-09-06T03:33:34.772Z,0
2018-09-06T03:34:44.126Z,0
2018-09-06T03:35:53.502Z,0
2018-09-06T03:37:03.496Z,0
2018-09-06T03:38:13.075Z,0
2018-09-06T03:39:22.918Z,0
2018-09-06T03:40:32.503Z,0
2018-09-06T03:41:42.350Z,0
2018-09-06T03:42:51.388Z,0
2018-09-06T03:44:00.962Z,0
2018-09-06T03:45:10.538Z,0
2018-09-06T03:46:20.651Z,0
2018-09-06T03:47:30.505Z,0
2018-09-06T03:48:40.393Z,0
2018-09-06T03:49:49.982Z,0
2018-09-06T03:50:59.826Z,0
2018-09-06T03:52:08.858Z,0
2018-09-06T03:53:18.162Z,0
2018-09-06T03:54:28.018Z,0
2018-09-06T03:55:37.857Z,0
2018-09-06T03:56:47.439Z,0
2018-09-06T03:57:57.550Z,0
2018-09-06T03:59:07.129Z,0
2018-09-06T04:00:16.985Z,0
2018-09-06T04:01:26.840Z,0
2018-09-06T04:02:36.681Z,0
2018-09-06T04:03:46.263Z,0
2018-09-06T04:04:56.109Z,0
2018-09-06T04:06:05.681Z,0
2018-09-06T04:07:15.267Z,0
2018-09-06T04:08:24.837Z,0
2018-09-06T04:09:34.683Z,0
2018-09-06T04:10:43.994Z,4
2018-09-06T04:11:53.878Z,4
2018-09-06T04:13:03.734Z,0
2018-09-06T04:14:13.590Z,4
2018-09-06T04:15:23.706Z,4
2018-09-06T04:16:33.547Z,4
2018-09-06T04:17:43.393Z,8
2018-09-06T04:18:52.969Z,8
2018-09-06T04:20:03.131Z,8
2018-09-06T04:21:12.434Z,8
2018-09-06T04:22:22.282Z,12
2018-09-06T04:23:31.852Z,12
2018-09-06T04:24:41.696Z,16
2018-09-06T04:25:51.826Z,20
2018-09-06T04:27:01.984Z,24
2018-09-06T04:28:11.837Z,28
2018-09-06T04:29:21.687Z,32
2018-09-06T04:30:30.729Z,40
2018-09-06T04:31:40.571Z,44
2018-09-06T04:32:50.417Z,56
2018-09-06T04:34:00.269Z,60
2018-09-06T04:35:09.306Z,72
2018-09-06T04:36:20.060Z,84
2018-09-06T04:37:29.923Z,96
2018-09-06T04:38:40.041Z,108
2018-09-06T04:39:49.616Z,124
2018-09-06T04:40:59.190Z,140
2018-09-06T04:42:08.766Z,156
2018-09-06T04:43:18.884Z,176
2018-09-06T04:44:28.744Z,196
2018-09-06T04:45:38.604Z,216
2018-09-06T04:46:48.451Z,236
2018-09-06T04:47:58.032Z,256
2018-09-06T04:49:07.892Z,284
2018-09-06T04:50:17.201Z,304
2018-09-06T04:51:27.054Z,332
2018-09-06T04:52:36.896Z,360
2018-09-06T04:53:46.795Z,384
2018-09-06T04:54:56.428Z,412
2018-09-06T04:56:05.733Z,440
2018-09-06T04:57:15.578Z,468
2018-09-06T04:58:25.955Z,500
2018-09-06T04:59:35.715Z,532
2018-09-06T05:00:45.040Z,560
2018-09-06T05:01:54.907Z,592
2018-09-06T05:03:04.478Z,620
2018-09-06T05:04:14.744Z,652
2018-09-06T05:05:24.948Z,684
2018-09-06T05:06:34.247Z,716
2018-09-06T05:07:43.833Z,748
2018-09-06T05:08:53.410Z,780
2018-09-06T05:10:03.528Z,812
2018-09-06T05:11:13.383Z,840
2018-09-06T05:12:22.964Z,876
2018-09-06T05:13:32.535Z,904
2018-09-06T05:14:42.106Z,936
2018-09-06T05:15:52.220Z,964
2018-09-06T05:17:02.069Z,992
2018-09-06T05:18:11.371Z,1024
2018-09-06T05:19:21.298Z,1052
2018-09-06T05:20:31.404Z,1080
2018-09-06T05:21:40.707Z,1112
2018-09-06T05:22:50.015Z,1136
2018-09-06T05:23:59.583Z,1168
2018-09-06T05:25:09.437Z,1196
2018-09-06T05:26:19.289Z,1220
2018-09-06T05:27:28.866Z,1252
2018-09-06T05:28:38.434Z,1276
2018-09-06T05:29:48.545Z,1304
2018-09-06T05:30:58.173Z,1332
2018-09-06T05:32:07.751Z,1360
2018-09-06T05:33:17.617Z,1384
2018-09-06T05:34:27.483Z,1416
2018-09-06T05:35:37.334Z,1444
2018-09-06T05:36:46.922Z,1468
2018-09-06T05:37:56.758Z,1492
2018-09-06T05:39:06.329Z,1524
2018-09-06T05:40:16.441Z,1548
2018-09-06T05:41:26.281Z,1572
2018-09-06T05:42:36.400Z,1600
2018-09-06T05:43:45.976Z,1624
2018-09-06T05:44:55.277Z,1648
2018-09-06T05:46:04.577Z,1676
2018-09-06T05:47:14.459Z,1696
2018-09-06T05:48:24.619Z,1716
2018-09-06T05:49:34.190Z,1736
2018-09-06T05:50:44.027Z,1752
2018-09-06T05:51:54.139Z,1768
2018-09-06T05:53:03.440Z,1788
2018-09-06T05:54:13.340Z,1804
2018-09-06T05:55:23.192Z,1824
2018-09-06T05:56:33.299Z,1844
2018-09-06T05:57:43.142Z,1864
2018-09-06T05:58:52.719Z,1884
2018-09-06T06:00:02.483Z,1904
2018-09-06T06:01:11.853Z,1912
2018-09-06T06:02:21.427Z,1928
2018-09-06T06:03:30.731Z,1944
2018-09-06T06:04:40.568Z,1956
2018-09-06T06:05:50.481Z,1968
2018-09-06T06:07:00.054Z,1980
2018-09-06T06:08:09.358Z,1996
2018-09-06T06:09:19.247Z,2016
2018-09-06T06:10:29.093Z,2032
2018-09-06T06:11:38.722Z,2048
2018-09-06T06:12:48.625Z,2064
2018-09-06T06:13:58.193Z,2080
2018-09-06T06:15:07.502Z,2092
2018-09-06T06:16:17.617Z,2108
2018-09-06T06:17:26.920Z,2124
2018-09-06T06:18:36.756Z,2148
2018-09-06T06:19:46.615Z,2168
2018-09-06T06:20:56.473Z,2184
2018-09-06T06:22:06.325Z,2208
2018-09-06T06:23:15.677Z,2220
2018-09-06T06:24:25.540Z,2236
2018-09-06T06:25:35.120Z,2256
2018-09-06T06:26:44.691Z,2268
2018-09-06T06:27:54.587Z,2288
2018-09-06T06:29:04.445Z,2300
2018-09-06T06:30:14.292Z,2312
2018-09-06T06:31:23.856Z,2316
2018-09-06T06:32:33.432Z,2304
2018-09-06T06:33:43.547Z,2308
2018-09-06T06:34:53.717Z,2304
2018-09-06T06:36:03.288Z,2312
2018-09-06T06:37:12.861Z,2336
2018-09-06T06:38:22.711Z,2360
2018-09-06T06:39:31.741Z,2384
2018-09-06T06:40:41.857Z,2440
2018-09-06T06:41:51.715Z,2524
2018-09-06T06:43:01.282Z,2632
2018-09-06T06:44:11.125Z,2740
2018-09-06T06:45:21.242Z,2888
2018-09-06T06:46:30.828Z,3080
2018-09-06T06:47:40.973Z,3216
2018-09-06T06:48:50.553Z,3308
2018-09-06T06:50:00.134Z,3356
2018-09-06T06:51:10.252Z,3396
2018-09-06T06:52:19.822Z,3412
2018-09-06T06:53:29.673Z,3376
2018-09-06T06:54:39.515Z,3232
2018-09-06T06:55:49.361Z,3040
2018-09-06T06:56:59.212Z,2836
2018-09-06T06:58:09.125Z,2652
2018-09-06T06:59:18.964Z,2512
2018-09-06T07:00:28.547Z,2440
2018-09-06T07:01:38.660Z,2460
2018-09-06T07:02:48.777Z,2532
2018-09-06T07:03:58.618Z,2596
2018-09-06T07:05:08.464Z,2644
2018-09-06T07:06:18.314Z,2684
2018-09-06T07:07:28.157Z,2712
2018-09-06T07:08:38.277Z,2728
2018-09-06T07:09:48.125Z,2688
2018-09-06T07:10:57.438Z,2676
2018-09-06T07:12:07.553Z,2652
2018-09-06T07:13:16.854Z,2628
2018-09-06T07:14:26.699Z,2688
2018-09-06T07:15:36.546Z,2728
2018-09-06T07:16:46.396Z,2760
2018-09-06T07:17:56.237Z,2800
2018-09-06T07:19:05.808Z,2840
2018-09-06T07:20:15.117Z,2848
2018-09-06T07:21:25.233Z,2960
2018-09-06T07:22:35.358Z,3036
2018-09-06T07:23:45.204Z,3076
2018-09-06T07:24:55.050Z,3088
2018-09-06T07:26:04.911Z,3100
2018-09-06T07:27:15.082Z,3092
2018-09-06T07:28:24.386Z,3124
2018-09-06T07:29:34.233Z,3168
2018-09-06T07:30:44.234Z,3160
2018-09-06T07:31:53.810Z,3152
2018-09-06T07:33:03.666Z,3176
2018-09-06T07:34:13.514Z,3204
2018-09-06T07:35:23.067Z,3212
2018-09-06T07:36:32.946Z,3196
2018-09-06T07:37:42.520Z,3196
2018-09-06T07:38:52.105Z,3252
2018-09-06T07:40:01.674Z,3348
2018-09-06T07:41:11.332Z,3444
2018-09-06T07:42:21.449Z,3464
2018-09-06T07:43:31.025Z,3444
2018-09-06T07:44:41.141Z,3440
2018-09-06T07:45:50.992Z,3468
2018-09-06T07:47:01.208Z,3516
2018-09-06T07:48:11.048Z,3560
2018-09-06T07:49:20.897Z,3612
2018-09-06T07:50:30.744Z,3616
2018-09-06T07:51:41.065Z,3600
2018-09-06T07:52:51.012Z,3592
2018-09-06T07:54:00.319Z,3604
2018-09-06T07:55:09.629Z,3612
2018-09-06T07:56:19.750Z,3628
2018-09-06T07:57:29.051Z,3644
2018-09-06T07:58:38.085Z,3668
2018-09-06T07:59:47.659Z,3672
2018-09-06T08:00:57.776Z,3668
2018-09-06T08:02:07.888Z,3656
2018-09-06T08:03:17.470Z,3656
2018-09-06T08:04:27.622Z,3652
2018-09-06T08:05:37.476Z,3676
2018-09-06T08:06:47.332Z,3720
2018-09-06T08:07:56.960Z,3784
2018-09-06T08:09:07.078Z,3848
2018-09-06T08:10:16.653Z,3936
2018-09-06T08:11:26.227Z,4044
2018-09-06T08:12:35.807Z,4144
2018-09-06T08:13:45.918Z,4256
2018-09-06T08:14:55.772Z,4392
2018-09-06T08:16:05.629Z,4540
2018-09-06T08:17:15.472Z,4728
2018-09-06T08:18:25.320Z,4916
2018-09-06T08:19:34.900Z,5128
2018-09-06T08:20:44.478Z,5264
2018-09-06T08:21:54.062Z,5332
2018-09-06T08:23:03.634Z,5408
2018-09-06T08:24:13.644Z,5488
2018-09-06T08:25:23.606Z,5544
2018-09-06T08:26:33.720Z,5600
2018-09-06T08:27:43.562Z,5704
2018-09-06T08:28:52.865Z,5772
2018-09-06T08:30:02.446Z,5880
2018-09-06T08:31:12.580Z,5964
2018-09-06T08:32:22.838Z,6036
2018-09-06T08:33:32.147Z,6048
2018-09-06T08:34:42.008Z,6008
2018-09-06T08:35:51.851Z,5920
2018-09-06T08:37:02.265Z,5892
2018-09-06T08:38:12.127Z,5844
2018-09-06T08:39:21.701Z,5772
2018-09-06T08:40:31.663Z,5744
2018-09-06T08:41:41.513Z,5720
2018-09-06T08:42:51.400Z,5652
2018-09-06T08:44:01.247Z,5612
2018-09-06T08:45:11.093Z,5568
2018-09-06T08:46:20.961Z,5520
2018-09-06T08:47:30.688Z,5476
2018-09-06T08:48:39.986Z,5460
2018-09-06T08:49:49.840Z,5408
2018-09-06T08:50:59.419Z,5368
2018-09-06T08:52:09.507Z,5312
2018-09-06T08:53:18.867Z,5264
2018-09-06T08:54:28.222Z,5228
2018-09-06T08:55:37.797Z,5172
2018-09-06T08:56:47.644Z,5112
2018-09-06T08:57:57.765Z,5032
2018-09-06T08:59:07.620Z,4876
2018-09-06T09:00:16.977Z,4784
2018-09-06T09:01:26.827Z,4724
2018-09-06T09:02:37.004Z,4688
2018-09-06T09:03:47.252Z,4648
2018-09-06T09:04:57.397Z,4672
2018-09-06T09:06:07.969Z,4720
2018-09-06T09:07:17.547Z,4732
2018-09-06T09:08:28.035Z,4676
2018-09-06T09:09:38.086Z,4628
2018-09-06T09:10:47.123Z,4588
2018-09-06T09:11:56.984Z,4552
2018-09-06T09:13:07.346Z,4572
2018-09-06T09:14:16.932Z,4644
2018-09-06T09:15:27.058Z,4752
2018-09-06T09:16:36.634Z,4852
2018-09-06T09:17:46.528Z,4892
2018-09-06T09:18:56.106Z,4912
2018-09-06T09:20:05.962Z,4916
2018-09-06T09:21:15.536Z,4952
2018-09-06T09:22:26.046Z,5032
2018-09-06T09:23:36.261Z,5156
2018-09-06T09:24:45.568Z,5312
2018-09-06T09:25:55.140Z,5484
2018-09-06T09:27:04.730Z,5664
2018-09-06T09:28:14.308Z,5804
2018-09-06T09:29:24.158Z,5940
2018-09-06T09:30:33.940Z,6096
2018-09-06T09:31:44.174Z,6260
2018-09-06T09:32:53.753Z,6388
2018-09-06T09:34:03.331Z,6532
2018-09-06T09:35:13.187Z,6668
2018-09-06T09:36:23.032Z,6724
2018-09-06T09:37:32.615Z,6784
2018-09-06T09:38:42.501Z,6964
2018-09-06T09:39:52.353Z,7100
2018-09-06T09:41:02.197Z,7248
2018-09-06T09:42:12.315Z,7376
2018-09-06T09:43:22.793Z,7360
2018-09-06T09:44:33.108Z,7352
2018-09-06T09:45:42.956Z,7424
2018-09-06T09:48:01.109Z,7576
2018-09-06T09:49:10.968Z,7684
2018-09-06T09:51:29.394Z,7912
2018-09-06T09:52:38.980Z,8016
2018-09-06T09:53:48.833Z,8068
2018-09-06T09:54:58.412Z,8144
2018-09-06T09:56:08.257Z,8268
2018-09-06T09:57:18.047Z,8364
2018-09-06T09:58:27.902Z,8444
2018-09-06T09:59:37.490Z,8460
2018-09-06T10:00:47.068Z,8544
2018-09-06T10:01:57.190Z,8668
2018-09-06T10:03:07.041Z,8812
2018-09-06T10:04:17.160Z,8944
2018-09-06T10:05:26.469Z,9208
2018-09-06T10:06:35.653Z,9372
2018-09-06T10:07:45.997Z,9552
2018-09-06T10:08:55.840Z,9660
2018-09-06T10:10:05.684Z,9652
2018-09-06T10:11:15.529Z,9688
2018-09-06T10:12:25.113Z,9752
2018-09-06T10:13:34.974Z,9760
2018-09-06T10:14:45.101Z,9796
2018-09-06T10:15:54.998Z,9844
2018-09-06T10:17:04.584Z,9752
2018-09-06T10:18:14.981Z,9704
2018-09-06T10:19:25.070Z,9748
2018-09-06T10:20:34.375Z,9720
2018-09-06T10:21:44.510Z,9820
2018-09-06T10:22:54.630Z,9908
2018-09-06T10:24:04.207Z,10040
2018-09-06T10:25:13.785Z,10220
2018-09-06T10:26:23.908Z,10536
2018-09-06T10:27:33.799Z,10836
2018-09-06T10:28:43.931Z,11096
2018-09-06T10:29:53.568Z,11356
2018-09-06T10:31:03.421Z,11420
2018-09-06T10:32:13.264Z,11588
2018-09-06T10:33:23.396Z,11744
2018-09-06T10:34:33.255Z,11776
2018-09-06T10:35:43.375Z,11704
2018-09-06T10:36:53.243Z,11528
2018-09-06T10:38:03.102Z,11376
2018-09-06T10:39:13.374Z,11308
2018-09-06T10:40:23.041Z,11232
2018-09-06T10:41:32.958Z,11264
2018-09-06T10:42:42.548Z,11404
2018-09-06T10:43:52.126Z,11540
2018-09-06T10:45:02.255Z,11700
2018-09-06T10:46:12.388Z,11744
2018-09-06T10:47:22.532Z,11748
2018-09-06T10:48:32.385Z,11764
2018-09-06T10:49:42.236Z,11784
2018-09-06T10:50:51.537Z,11884
2018-09-06T10:52:01.127Z,11992
2018-09-06T10:53:10.981Z,12176
2018-09-06T10:54:20.573Z,12232
2018-09-06T10:55:30.423Z,12300
2018-09-06T10:56:40.550Z,12432
2018-09-06T10:57:49.590Z,12504
2018-09-06T10:58:59.704Z,12528
2018-09-06T11:00:08.744Z,12524
2018-09-06T11:01:18.328Z,12488
2018-09-06T11:02:28.437Z,12488
2018-09-06T11:03:38.292Z,12528
2018-09-06T11:04:47.605Z,12644
2018-09-06T11:05:57.204Z,12764
2018-09-06T11:07:06.802Z,12676
2018-09-06T11:08:17.079Z,12600
2018-09-06T11:09:27.398Z,12656
2018-09-06T11:10:36.972Z,12776
2018-09-06T11:11:46.281Z,12976
2018-09-06T11:12:55.886Z,13172
2018-09-06T11:14:05.451Z,13272
2018-09-06T11:15:15.547Z,13352
2018-09-06T11:16:25.150Z,13376
2018-09-06T11:17:35.002Z,13396
2018-09-06T11:18:44.858Z,13432
2018-09-06T11:19:53.620Z,13428
2018-09-06T11:21:03.378Z,13436
2018-09-06T11:22:15.669Z,13328
2018-09-06T11:23:26.036Z,13228
2018-09-06T11:24:35.617Z,13176
2018-09-06T11:25:45.740Z,13188
2018-09-06T11:26:55.875Z,13140
2018-09-06T11:28:05.457Z,12940
2018-09-06T11:29:15.373Z,12804
2018-09-06T11:30:24.968Z,12752
2018-09-06T11:31:34.823Z,12804
2018-09-06T11:32:44.433Z,12908
2018-09-06T11:33:54.288Z,12860
2018-09-06T11:35:03.610Z,12848
2018-09-06T11:36:13.461Z,12972
2018-09-06T11:37:23.044Z,13224
2018-09-06T11:38:33.170Z,13492
2018-09-06T11:39:43.027Z,13840
2018-09-06T11:40:52.876Z,14272
2018-09-06T11:42:02.728Z,14896
2018-09-06T11:43:12.851Z,15572
2018-09-06T11:44:21.913Z,16204
2018-09-06T11:45:31.493Z,16928
2018-09-06T11:46:40.563Z,17152
2018-09-06T11:47:50.555Z,17280
2018-09-06T11:49:00.332Z,17824
2018-09-06T11:50:09.919Z,18528
2018-09-06T11:51:20.087Z,18816
2018-09-06T11:52:29.673Z,18912
2018-09-06T11:53:39.251Z,19072
2018-09-06T11:54:48.559Z,20864
2018-09-06T11:55:57.904Z,37568
2018-09-06T11:57:08.035Z,30496
2018-09-06T11:58:17.908Z,29504
2018-09-06T11:59:28.036Z,20896
2018-09-06T12:00:37.880Z,18816
2018-09-06T12:01:47.462Z,17984
2018-09-06T12:02:56.797Z,18400
2018-09-06T12:04:06.385Z,17792
2018-09-06T12:05:16.511Z,17536
2018-09-06T12:06:26.145Z,20832
2018-09-06T12:07:35.728Z,21440
2018-09-06T12:08:45.304Z,23840
2018-09-06T12:09:55.159Z,22880
2018-09-06T12:11:05.278Z,24128
2018-09-06T12:12:14.870Z,21248
2018-09-06T12:13:24.186Z,22176
2018-09-06T12:14:34.311Z,22752
2018-09-06T12:15:43.899Z,19776
2018-09-06T12:16:53.478Z,21312
2018-09-06T12:18:03.339Z,18592
2018-09-06T12:19:12.924Z,17568
2018-09-06T12:20:22.504Z,17600
2018-09-06T12:21:32.631Z,18176
2018-09-06T12:22:42.754Z,19648
2018-09-06T12:23:52.922Z,19584
2018-09-06T12:25:02.505Z,19264
2018-09-06T12:26:12.094Z,18816
2018-09-06T12:27:21.945Z,17792
2018-09-06T12:28:31.797Z,16992
2018-09-06T12:29:41.111Z,15904
2018-09-06T12:30:50.422Z,15404
2018-09-06T12:32:00.599Z,14824
2018-09-06T12:33:10.267Z,13740
2018-09-06T12:34:20.463Z,13576
2018-09-06T12:35:30.043Z,13208
2018-09-06T12:36:39.899Z,10968
2018-09-06T12:37:50.034Z,10064
2018-09-06T12:39:00.153Z,8488
2018-09-06T12:40:10.021Z,7160
2018-09-06T12:41:19.931Z,6212
2018-09-06T12:42:29.246Z,5580
2018-09-06T12:43:38.819Z,5248
2018-09-06T12:44:48.935Z,5008
2018-09-06T12:45:59.058Z,4768
2018-09-06T12:47:08.384Z,4580
2018-09-06T12:48:18.507Z,4388
2018-09-06T12:49:28.116Z,4160
2018-09-06T12:50:37.976Z,3988
2018-09-06T12:51:47.563Z,3864
2018-09-06T12:52:57.142Z,3704
2018-09-06T12:54:07.261Z,3456
2018-09-06T12:55:17.105Z,3252
2018-09-06T12:56:27.051Z,3148
2018-09-06T12:57:37.246Z,3048
2018-09-06T12:58:47.365Z,3048
2018-09-06T12:59:56.943Z,3176
2018-09-06T13:01:06.790Z,3324
2018-09-06T13:02:16.102Z,3376
2018-09-06T13:03:25.956Z,3308
2018-09-06T13:04:35.856Z,3100
2018-09-06T13:05:45.981Z,2776
2018-09-06T13:06:55.017Z,2464
2018-09-06T13:08:04.965Z,2212
2018-09-06T13:09:14.960Z,2032
2018-09-06T13:10:24.814Z,1864
2018-09-06T13:11:34.719Z,1704
2018-09-06T13:12:44.569Z,1552
2018-09-06T13:13:54.155Z,1428
2018-09-06T13:15:04.010Z,1328
2018-09-06T13:16:13.321Z,1260
2018-09-06T13:17:23.173Z,1204
2018-09-06T13:18:33.413Z,1160
2018-09-06T13:19:43.292Z,1132
2018-09-06T13:20:52.881Z,1132
2018-09-06T13:22:03.001Z,1184
2018-09-06T13:23:12.574Z,1304
2018-09-06T13:24:22.426Z,1516
2018-09-06T13:25:32.551Z,1804
2018-09-06T13:26:42.401Z,2116
2018-09-06T13:27:52.534Z,2368
2018-09-06T13:29:02.374Z,2536
2018-09-06T13:30:12.254Z,2752
2018-09-06T13:31:21.826Z,3148
2018-09-06T13:32:31.130Z,3556
2018-09-06T13:33:40.708Z,3892
2018-09-06T13:34:50.563Z,4144
2018-09-06T13:36:00.147Z,3820
2018-09-06T13:37:09.188Z,3036
2018-09-06T13:38:18.760Z,2432
2018-09-06T13:39:28.339Z,2060
2018-09-06T13:40:38.199Z,1964
2018-09-06T13:41:47.785Z,2116
2018-09-06T13:42:57.636Z,2400
2018-09-06T13:44:06.667Z,2692
2018-09-06T13:45:16.247Z,2964
2018-09-06T13:46:26.374Z,3236
2018-09-06T13:47:36.235Z,3592
2018-09-06T13:48:46.083Z,3900
2018-09-06T13:49:56.210Z,4008
2018-09-06T13:51:05.791Z,3968
2018-09-06T13:52:16.432Z,3696
2018-09-06T13:53:26.747Z,3272
2018-09-06T13:54:36.590Z,2888
2018-09-06T13:55:46.443Z,2536
2018-09-06T13:56:55.750Z,2256
2018-09-06T13:58:05.590Z,2128
2018-09-06T13:59:15.449Z,2032
2018-09-06T14:00:25.304Z,1960
2018-09-06T14:01:34.889Z,1884
2018-09-06T14:02:44.473Z,1824
2018-09-06T14:03:54.066Z,1800
2018-09-06T14:05:04.080Z,1828
2018-09-06T14:06:14.090Z,1892
2018-09-06T14:07:23.674Z,1968
2018-09-06T14:08:33.530Z,2084
2018-09-06T14:09:43.385Z,2308
2018-09-06T14:10:53.508Z,2552
2018-09-06T14:12:03.366Z,2756
2018-09-06T14:13:12.953Z,2992
2018-09-06T14:14:22.274Z,3472
2018-09-06T14:15:32.126Z,3928
2018-09-06T14:16:42.664Z,4224
2018-09-06T14:17:52.595Z,4280
2018-09-06T14:19:02.481Z,4000
2018-09-06T14:20:12.341Z,3408
2018-09-06T14:21:21.454Z,2804
2018-09-06T14:22:31.575Z,2392
2018-09-06T14:23:41.444Z,2152
2018-09-06T14:24:51.569Z,2020
2018-09-06T14:26:01.422Z,2008
2018-09-06T14:27:10.735Z,2028
2018-09-06T14:28:20.319Z,2020
2018-09-06T14:29:30.440Z,1936
2018-09-06T14:30:40.025Z,1836
2018-09-06T14:31:50.141Z,1816
2018-09-06T14:33:00.270Z,1860
2018-09-06T14:34:09.574Z,1880
2018-09-06T14:35:19.691Z,1856
2018-09-06T14:36:29.540Z,1788
2018-09-06T14:37:39.391Z,1656
2018-09-06T14:38:50.027Z,1604
2018-09-06T14:39:59.887Z,1668
2018-09-06T14:41:09.754Z,1840
2018-09-06T14:42:19.352Z,1924
2018-09-06T14:43:29.194Z,1876
2018-09-06T14:44:38.777Z,1668
2018-09-06T14:45:48.079Z,1412
2018-09-06T14:46:57.931Z,1140
2018-09-06T14:48:06.980Z,928
2018-09-06T14:49:16.874Z,828
2018-09-06T14:50:26.990Z,776
2018-09-06T14:51:36.843Z,768
2018-09-06T14:52:46.695Z,824
2018-09-06T14:53:56.283Z,916
2018-09-06T14:55:05.850Z,992
2018-09-06T14:56:15.698Z,1104
2018-09-06T14:57:25.357Z,1328
2018-09-06T14:58:35.193Z,1604
2018-09-06T14:59:45.063Z,1828
2018-09-06T15:00:54.916Z,2072
2018-09-06T15:02:04.490Z,2320
2018-09-06T15:03:14.107Z,2476
2018-09-06T15:04:23.950Z,2540
2018-09-06T15:05:33.264Z,2560
2018-09-06T15:06:42.841Z,2532
2018-09-06T15:07:52.457Z,2492
2018-09-06T15:09:02.309Z,2472
2018-09-06T15:10:11.884Z,2444
2018-09-06T15:11:21.777Z,2440
2018-09-06T15:12:31.360Z,2440
2018-09-06T15:13:41.510Z,2444
2018-09-06T15:14:51.375Z,2436
2018-09-06T15:16:00.672Z,2424
2018-09-06T15:17:10.790Z,2384
2018-09-06T15:18:20.640Z,2376
2018-09-06T15:19:31.079Z,2392
2018-09-06T15:20:40.919Z,2420
2018-09-06T15:21:50.225Z,2436
2018-09-06T15:23:00.344Z,2432
2018-09-06T15:24:09.926Z,2432
2018-09-06T15:25:19.236Z,2500
2018-09-06T15:26:28.817Z,2600
2018-09-06T15:27:37.853Z,2692
2018-09-06T15:28:48.020Z,2708
2018-09-06T15:29:57.652Z,2684
2018-09-06T15:31:06.922Z,2556
2018-09-06T15:32:17.042Z,2396
2018-09-06T15:33:26.616Z,2236
2018-09-06T15:34:36.833Z,2160
2018-09-06T15:35:46.470Z,2152
2018-09-06T15:36:56.319Z,2208
2018-09-06T15:38:06.165Z,2256
2018-09-06T15:39:15.493Z,2228
2018-09-06T15:40:25.346Z,2156
2018-09-06T15:41:34.927Z,2052
2018-09-06T15:42:44.769Z,1952
2018-09-06T15:43:54.376Z,1836
2018-09-06T15:45:03.950Z,1692
2018-09-06T15:46:13.809Z,1532
2018-09-06T15:47:23.925Z,1424
2018-09-06T15:48:33.794Z,1396
2018-09-06T15:49:43.837Z,1400
2018-09-06T15:50:53.285Z,1340
2018-09-06T15:52:02.597Z,1184
2018-09-06T15:53:12.714Z,1000
2018-09-06T15:54:22.833Z,868
2018-09-06T15:55:32.143Z,824